sensor_id;sensor_type;location;lat;lon;timestamp;P1;durP1;ratioP1;P2;durP2;ratioP2
74170;SDS011;62526;50.948;6.590;2023-04-24T00:00:13;3.60;;;1.47;;
74170;SDS011;62526;50.948;6.590;2023-04-24T00:02:41;2.17;;;1.73;;
74170;SDS011;62526;50.948;6.590;2023-04-24T00:05:08;1.67;;;1.53;;
74170;SDS011;62526;50.948;6.590;2023-04-24T00:07:35;2.80;;;1.40;;
74170;SDS011;62526;50.948;6.590;2023-04-24T00:10:01;1.50;;;1.40;;
74170;SDS011;62526;50.948;6.590;2023-04-24T00:12:28;2.23;;;1.57;;
74170;SDS011;62526;50.948;6.590;2023-04-24T00:14:54;5.00;;;1.40;;
74170;SDS011;62526;50.948;6.590;2023-04-24T00:17:21;1.50;;;1.40;;
74170;SDS011;62526;50.948;6.590;2023-04-24T00:19:48;2.63;;;1.70;;
74170;SDS011;62526;50.948;6.590;2023-04-24T00:22:14;4.50;;;2.07;;
74170;SDS011;62526;50.948;6.590;2023-04-24T00:24:41;9.40;;;2.13;;
74170;SDS011;62526;50.948;6.590;2023-04-24T00:27:07;6.97;;;1.83;;
74170;SDS011;62526;50.948;6.590;2023-04-24T00:29:34;1.77;;;1.67;;
74170;SDS011;62526;50.948;6.590;2023-04-24T00:32:01;5.13;;;1.90;;
74170;SDS011;62526;50.948;6.590;2023-04-24T00:34:27;4.73;;;1.90;;
74170;SDS011;62526;50.948;6.590;2023-04-24T00:36:54;3.03;;;1.73;;
74170;SDS011;62526;50.948;6.590;2023-04-24T00:39:21;2.43;;;1.70;;
74170;SDS011;62526;50.948;6.590;2023-04-24T00:41:47;3.03;;;1.80;;
74170;SDS011;62526;50.948;6.590;2023-04-24T00:44:14;5.60;;;1.80;;
74170;SDS011;62526;50.948;6.590;2023-04-24T00:46:40;2.57;;;1.90;;
74170;SDS011;62526;50.948;6.590;2023-04-24T00:49:07;1.60;;;1.50;;
74170;SDS011;62526;50.948;6.590;2023-04-24T00:51:34;1.67;;;1.57;;
74170;SDS011;62526;50.948;6.590;2023-04-24T00:54:00;1.60;;;1.50;;
74170;SDS011;62526;50.948;6.590;2023-04-24T00:56:27;2.43;;;1.77;;
74170;SDS011;62526;50.948;6.590;2023-04-24T00:58:53;2.60;;;1.90;;
74170;SDS011;62526;50.948;6.590;2023-04-24T01:01:20;2.47;;;2.00;;
74170;SDS011;62526;50.948;6.590;2023-04-24T01:03:47;2.83;;;2.00;;
74170;SDS011;62526;50.948;6.590;2023-04-24T01:06:13;4.97;;;2.47;;
74170;SDS011;62526;50.948;6.590;2023-04-24T01:08:40;3.77;;;3.03;;
74170;SDS011;62526;50.948;6.590;2023-04-24T01:11:06;4.43;;;3.03;;
74170;SDS011;62526;50.948;6.590;2023-04-24T01:13:33;4.47;;;3.17;;
74170;SDS011;62526;50.948;6.590;2023-04-24T01:16:00;4.53;;;3.00;;
74170;SDS011;62526;50.948;6.590;2023-04-24T01:18:26;4.97;;;2.80;;
74170;SDS011;62526;50.948;6.590;2023-04-24T01:20:53;7.70;;;3.73;;
74170;SDS011;62526;50.948;6.590;2023-04-24T01:23:20;7.63;;;3.70;;
74170;SDS011;62526;50.948;6.590;2023-04-24T01:25:46;4.57;;;4.10;;
74170;SDS011;62526;50.948;6.590;2023-04-24T01:28:13;5.17;;;3.50;;
74170;SDS011;62526;50.948;6.590;2023-04-24T01:30:39;8.93;;;3.63;;
74170;SDS011;62526;50.948;6.590;2023-04-24T01:33:06;5.27;;;4.40;;
74170;SDS011;62526;50.948;6.590;2023-04-24T01:35:33;7.93;;;4.17;;
74170;SDS011;62526;50.948;6.590;2023-04-24T01:37:59;6.67;;;3.40;;
74170;SDS011;62526;50.948;6.590;2023-04-24T01:40:26;4.97;;;3.63;;
74170;SDS011;62526;50.948;6.590;2023-04-24T01:42:52;7.93;;;3.90;;
74170;SDS011;62526;50.948;6.590;2023-04-24T01:45:19;10.73;;;5.33;;
74170;SDS011;62526;50.948;6.590;2023-04-24T01:47:46;9.73;;;5.63;;
74170;SDS011;62526;50.948;6.590;2023-04-24T01:50:13;7.97;;;4.73;;
74170;SDS011;62526;50.948;6.590;2023-04-24T01:52:40;8.27;;;5.73;;
74170;SDS011;62526;50.948;6.590;2023-04-24T01:55:06;11.10;;;5.40;;
74170;SDS011;62526;50.948;6.590;2023-04-24T01:57:33;5.13;;;3.93;;
74170;SDS011;62526;50.948;6.590;2023-04-24T02:00:00;12.13;;;5.87;;
74170;SDS011;62526;50.948;6.590;2023-04-24T02:02:27;6.57;;;4.67;;
74170;SDS011;62526;50.948;6.590;2023-04-24T02:04:54;6.53;;;4.73;;
74170;SDS011;62526;50.948;6.590;2023-04-24T02:07:21;8.73;;;5.47;;
74170;SDS011;62526;50.948;6.590;2023-04-24T02:09:48;9.43;;;5.97;;
74170;SDS011;62526;50.948;6.590;2023-04-24T02:12:15;7.37;;;4.57;;
74170;SDS011;62526;50.948;6.590;2023-04-24T02:14:43;8.37;;;5.43;;
74170;SDS011;62526;50.948;6.590;2023-04-24T02:17:09;8.07;;;5.30;;
74170;SDS011;62526;50.948;6.590;2023-04-24T02:19:35;12.30;;;5.50;;
74170;SDS011;62526;50.948;6.590;2023-04-24T02:22:02;9.53;;;5.00;;
74170;SDS011;62526;50.948;6.590;2023-04-24T02:24:29;8.67;;;4.47;;
74170;SDS011;62526;50.948;6.590;2023-04-24T02:26:55;11.57;;;5.10;;
74170;SDS011;62526;50.948;6.590;2023-04-24T02:29:22;6.43;;;4.33;;
74170;SDS011;62526;50.948;6.590;2023-04-24T02:31:48;12.80;;;5.53;;
74170;SDS011;62526;50.948;6.590;2023-04-24T02:34:15;10.13;;;4.63;;
74170;SDS011;62526;50.948;6.590;2023-04-24T02:36:42;8.27;;;5.13;;
74170;SDS011;62526;50.948;6.590;2023-04-24T02:39:08;13.03;;;6.47;;
74170;SDS011;62526;50.948;6.590;2023-04-24T02:41:35;7.23;;;5.47;;
74170;SDS011;62526;50.948;6.590;2023-04-24T02:44:01;15.07;;;6.00;;
74170;SDS011;62526;50.948;6.590;2023-04-24T02:46:28;9.03;;;6.03;;
74170;SDS011;62526;50.948;6.590;2023-04-24T02:48:55;9.00;;;5.93;;
74170;SDS011;62526;50.948;6.590;2023-04-24T02:51:21;9.70;;;5.73;;
74170;SDS011;62526;50.948;6.590;2023-04-24T02:53:48;9.67;;;5.17;;
74170;SDS011;62526;50.948;6.590;2023-04-24T02:56:14;10.57;;;5.77;;
74170;SDS011;62526;50.948;6.590;2023-04-24T02:58:41;7.40;;;4.80;;
74170;SDS011;62526;50.948;6.590;2023-04-24T03:01:08;7.43;;;4.63;;
74170;SDS011;62526;50.948;6.590;2023-04-24T03:03:34;13.47;;;6.37;;
74170;SDS011;62526;50.948;6.590;2023-04-24T03:06:01;9.00;;;4.90;;
74170;SDS011;62526;50.948;6.590;2023-04-24T03:08:27;10.87;;;6.67;;
74170;SDS011;62526;50.948;6.590;2023-04-24T03:10:54;11.17;;;5.03;;
74170;SDS011;62526;50.948;6.590;2023-04-24T03:13:21;8.43;;;5.10;;
74170;SDS011;62526;50.948;6.590;2023-04-24T03:15:47;14.93;;;6.37;;
74170;SDS011;62526;50.948;6.590;2023-04-24T03:18:14;12.60;;;6.17;;
74170;SDS011;62526;50.948;6.590;2023-04-24T03:20:40;11.53;;;5.73;;
74170;SDS011;62526;50.948;6.590;2023-04-24T03:23:07;9.30;;;6.07;;
74170;SDS011;62526;50.948;6.590;2023-04-24T03:25:34;11.37;;;6.83;;
74170;SDS011;62526;50.948;6.590;2023-04-24T03:28:01;7.87;;;5.87;;
74170;SDS011;62526;50.948;6.590;2023-04-24T03:30:28;13.73;;;6.87;;
74170;SDS011;62526;50.948;6.590;2023-04-24T03:32:54;16.30;;;6.57;;
74170;SDS011;62526;50.948;6.590;2023-04-24T03:35:21;11.33;;;5.37;;
74170;SDS011;62526;50.948;6.590;2023-04-24T03:37:47;9.87;;;5.73;;
74170;SDS011;62526;50.948;6.590;2023-04-24T03:40:14;5.90;;;3.60;;
74170;SDS011;62526;50.948;6.590;2023-04-24T03:42:41;14.37;;;6.60;;
74170;SDS011;62526;50.948;6.590;2023-04-24T03:45:08;9.50;;;5.20;;
74170;SDS011;62526;50.948;6.590;2023-04-24T03:47:35;9.23;;;5.30;;
74170;SDS011;62526;50.948;6.590;2023-04-24T03:50:02;14.17;;;6.10;;
74170;SDS011;62526;50.948;6.590;2023-04-24T03:52:28;6.23;;;5.07;;
74170;SDS011;62526;50.948;6.590;2023-04-24T03:54:55;11.37;;;6.70;;
74170;SDS011;62526;50.948;6.590;2023-04-24T03:57:21;11.30;;;5.70;;
74170;SDS011;62526;50.948;6.590;2023-04-24T03:59:48;15.33;;;6.67;;
74170;SDS011;62526;50.948;6.590;2023-04-24T04:02:15;8.07;;;6.50;;
74170;SDS011;62526;50.948;6.590;2023-04-24T04:04:41;8.77;;;6.30;;
74170;SDS011;62526;50.948;6.590;2023-04-24T04:07:08;11.83;;;6.77;;
74170;SDS011;62526;50.948;6.590;2023-04-24T04:09:35;10.27;;;6.23;;
74170;SDS011;62526;50.948;6.590;2023-04-24T04:12:01;14.40;;;5.93;;
74170;SDS011;62526;50.948;6.590;2023-04-24T04:14:28;8.67;;;5.70;;
74170;SDS011;62526;50.948;6.590;2023-04-24T04:16:54;8.07;;;5.63;;
74170;SDS011;62526;50.948;6.590;2023-04-24T04:19:21;10.90;;;5.97;;
74170;SDS011;62526;50.948;6.590;2023-04-24T04:21:48;11.77;;;5.03;;
74170;SDS011;62526;50.948;6.590;2023-04-24T04:24:17;10.97;;;5.77;;
74170;SDS011;62526;50.948;6.590;2023-04-24T04:26:44;9.60;;;5.17;;
74170;SDS011;62526;50.948;6.590;2023-04-24T04:29:10;9.23;;;5.07;;
74170;SDS011;62526;50.948;6.590;2023-04-24T04:31:37;6.43;;;4.70;;
74170;SDS011;62526;50.948;6.590;2023-04-24T04:34:03;11.43;;;4.80;;
74170;SDS011;62526;50.948;6.590;2023-04-24T04:36:30;11.27;;;5.40;;
74170;SDS011;62526;50.948;6.590;2023-04-24T04:38:57;8.97;;;5.40;;
74170;SDS011;62526;50.948;6.590;2023-04-24T04:41:23;7.77;;;5.70;;
74170;SDS011;62526;50.948;6.590;2023-04-24T04:43:50;4.30;;;3.90;;
74170;SDS011;62526;50.948;6.590;2023-04-24T04:46:16;6.03;;;5.00;;
74170;SDS011;62526;50.948;6.590;2023-04-24T04:48:43;8.77;;;5.67;;
74170;SDS011;62526;50.948;6.590;2023-04-24T04:51:10;9.50;;;5.53;;
74170;SDS011;62526;50.948;6.590;2023-04-24T04:53:36;10.27;;;5.47;;
74170;SDS011;62526;50.948;6.590;2023-04-24T04:56:03;8.17;;;5.53;;
74170;SDS011;62526;50.948;6.590;2023-04-24T04:58:29;6.77;;;4.77;;
74170;SDS011;62526;50.948;6.590;2023-04-24T05:00:56;10.50;;;4.83;;
74170;SDS011;62526;50.948;6.590;2023-04-24T05:03:23;14.70;;;6.07;;
74170;SDS011;62526;50.948;6.590;2023-04-24T05:05:49;11.27;;;5.72;;
74170;SDS011;62526;50.948;6.590;2023-04-24T05:08:16;6.57;;;4.73;;
74170;SDS011;62526;50.948;6.590;2023-04-24T05:10:43;12.50;;;6.63;;
74170;SDS011;62526;50.948;6.590;2023-04-24T05:13:09;9.43;;;6.10;;
74170;SDS011;62526;50.948;6.590;2023-04-24T05:15:36;7.17;;;4.57;;
74170;SDS011;62526;50.948;6.590;2023-04-24T05:18:02;8.77;;;4.83;;
74170;SDS011;62526;50.948;6.590;2023-04-24T05:20:29;9.60;;;5.47;;
74170;SDS011;62526;50.948;6.590;2023-04-24T05:22:56;13.57;;;6.70;;
74170;SDS011;62526;50.948;6.590;2023-04-24T05:25:22;11.93;;;7.10;;
74170;SDS011;62526;50.948;6.590;2023-04-24T05:27:49;9.53;;;5.10;;
74170;SDS011;62526;50.948;6.590;2023-04-24T05:30:15;9.57;;;4.57;;
74170;SDS011;62526;50.948;6.590;2023-04-24T05:32:42;6.27;;;4.73;;
74170;SDS011;62526;50.948;6.590;2023-04-24T05:35:08;12.10;;;6.30;;
74170;SDS011;62526;50.948;6.590;2023-04-24T05:37:35;11.17;;;5.37;;
74170;SDS011;62526;50.948;6.590;2023-04-24T05:40:03;9.13;;;5.27;;
74170;SDS011;62526;50.948;6.590;2023-04-24T05:42:30;8.63;;;5.77;;
74170;SDS011;62526;50.948;6.590;2023-04-24T05:44:56;15.23;;;5.33;;
74170;SDS011;62526;50.948;6.590;2023-04-24T05:47:23;12.10;;;5.80;;
74170;SDS011;62526;50.948;6.590;2023-04-24T05:49:50;6.70;;;4.70;;
74170;SDS011;62526;50.948;6.590;2023-04-24T05:52:16;4.37;;;3.20;;
74170;SDS011;62526;50.948;6.590;2023-04-24T05:54:43;4.17;;;3.40;;
74170;SDS011;62526;50.948;6.590;2023-04-24T05:57:10;4.70;;;2.63;;
74170;SDS011;62526;50.948;6.590;2023-04-24T05:59:37;3.30;;;2.37;;
74170;SDS011;62526;50.948;6.590;2023-04-24T06:02:04;3.77;;;2.47;;
74170;SDS011;62526;50.948;6.590;2023-04-24T06:04:31;8.37;;;3.03;;
74170;SDS011;62526;50.948;6.590;2023-04-24T06:06:57;5.13;;;2.70;;
74170;SDS011;62526;50.948;6.590;2023-04-24T06:09:24;4.73;;;2.87;;
74170;SDS011;62526;50.948;6.590;2023-04-24T06:11:50;4.60;;;2.63;;
74170;SDS011;62526;50.948;6.590;2023-04-24T06:14:17;4.60;;;3.90;;
74170;SDS011;62526;50.948;6.590;2023-04-24T06:16:44;6.27;;;3.90;;
74170;SDS011;62526;50.948;6.590;2023-04-24T06:19:11;6.10;;;2.23;;
74170;SDS011;62526;50.948;6.590;2023-04-24T06:21:37;6.73;;;3.23;;
74170;SDS011;62526;50.948;6.590;2023-04-24T06:24:04;4.70;;;2.80;;
74170;SDS011;62526;50.948;6.590;2023-04-24T06:26:30;3.20;;;2.90;;
74170;SDS011;62526;50.948;6.590;2023-04-24T06:28:57;5.93;;;2.87;;
74170;SDS011;62526;50.948;6.590;2023-04-24T06:31:24;3.10;;;2.77;;
74170;SDS011;62526;50.948;6.590;2023-04-24T06:33:50;3.97;;;3.10;;
74170;SDS011;62526;50.948;6.590;2023-04-24T06:36:17;4.10;;;2.43;;
74170;SDS011;62526;50.948;6.590;2023-04-24T06:38:43;5.93;;;3.20;;
74170;SDS011;62526;50.948;6.590;2023-04-24T06:41:10;2.57;;;2.33;;
74170;SDS011;62526;50.948;6.590;2023-04-24T06:43:37;2.93;;;2.63;;
74170;SDS011;62526;50.948;6.590;2023-04-24T06:46:03;5.13;;;2.17;;
74170;SDS011;62526;50.948;6.590;2023-04-24T06:48:30;3.37;;;2.20;;
74170;SDS011;62526;50.948;6.590;2023-04-24T06:50:56;3.03;;;2.73;;
74170;SDS011;62526;50.948;6.590;2023-04-24T06:53:23;3.90;;;2.43;;
74170;SDS011;62526;50.948;6.590;2023-04-24T06:55:50;5.43;;;3.90;;
74170;SDS011;62526;50.948;6.590;2023-04-24T06:58:17;4.00;;;3.00;;
74170;SDS011;62526;50.948;6.590;2023-04-24T07:00:43;4.77;;;3.67;;
74170;SDS011;62526;50.948;6.590;2023-04-24T07:03:09;3.03;;;2.77;;
74170;SDS011;62526;50.948;6.590;2023-04-24T07:05:36;4.27;;;3.20;;
74170;SDS011;62526;50.948;6.590;2023-04-24T07:08:03;5.67;;;2.50;;
74170;SDS011;62526;50.948;6.590;2023-04-24T07:10:29;2.63;;;2.37;;
74170;SDS011;62526;50.948;6.590;2023-04-24T07:12:56;3.73;;;2.30;;
74170;SDS011;62526;50.948;6.590;2023-04-24T07:15:22;3.23;;;2.03;;
74170;SDS011;62526;50.948;6.590;2023-04-24T07:17:49;4.57;;;2.20;;
74170;SDS011;62526;50.948;6.590;2023-04-24T07:20:16;2.20;;;2.00;;
74170;SDS011;62526;50.948;6.590;2023-04-24T07:22:42;2.50;;;1.93;;
74170;SDS011;62526;50.948;6.590;2023-04-24T07:25:10;1.53;;;1.43;;
74170;SDS011;62526;50.948;6.590;2023-04-24T07:27:36;2.90;;;1.87;;
74170;SDS011;62526;50.948;6.590;2023-04-24T07:30:03;2.50;;;1.80;;
74170;SDS011;62526;50.948;6.590;2023-04-24T07:32:30;2.77;;;1.90;;
74170;SDS011;62526;50.948;6.590;2023-04-24T07:34:56;3.13;;;2.43;;
74170;SDS011;62526;50.948;6.590;2023-04-24T07:37:23;2.00;;;1.80;;
74170;SDS011;62526;50.948;6.590;2023-04-24T07:39:50;2.47;;;1.50;;
74170;SDS011;62526;50.948;6.590;2023-04-24T07:42:16;1.93;;;1.70;;
74170;SDS011;62526;50.948;6.590;2023-04-24T07:44:43;1.80;;;1.70;;
74170;SDS011;62526;50.948;6.590;2023-04-24T07:47:09;2.90;;;2.10;;
74170;SDS011;62526;50.948;6.590;2023-04-24T07:49:36;3.53;;;2.27;;
74170;SDS011;62526;50.948;6.590;2023-04-24T07:52:03;3.03;;;1.90;;
74170;SDS011;62526;50.948;6.590;2023-04-24T07:54:29;2.50;;;2.13;;
74170;SDS011;62526;50.948;6.590;2023-04-24T07:56:56;2.93;;;2.37;;
74170;SDS011;62526;50.948;6.590;2023-04-24T07:59:23;4.03;;;2.20;;
74170;SDS011;62526;50.948;6.590;2023-04-24T08:01:49;3.13;;;2.33;;
74170;SDS011;62526;50.948;6.590;2023-04-24T08:04:16;2.10;;;1.70;;
74170;SDS011;62526;50.948;6.590;2023-04-24T08:06:42;1.83;;;1.70;;
74170;SDS011;62526;50.948;6.590;2023-04-24T08:09:09;1.70;;;1.60;;
74170;SDS011;62526;50.948;6.590;2023-04-24T08:11:36;3.00;;;1.80;;
74170;SDS011;62526;50.948;6.590;2023-04-24T08:14:02;2.10;;;1.63;;
74170;SDS011;62526;50.948;6.590;2023-04-24T08:16:29;1.73;;;1.60;;
74170;SDS011;62526;50.948;6.590;2023-04-24T08:18:55;3.03;;;2.10;;
74170;SDS011;62526;50.948;6.590;2023-04-24T08:21:22;2.07;;;1.87;;
74170;SDS011;62526;50.948;6.590;2023-04-24T08:23:49;2.07;;;1.87;;
74170;SDS011;62526;50.948;6.590;2023-04-24T08:26:16;4.13;;;2.20;;
74170;SDS011;62526;50.948;6.590;2023-04-24T08:28:42;2.73;;;2.17;;
74170;SDS011;62526;50.948;6.590;2023-04-24T08:31:08;4.60;;;2.57;;
74170;SDS011;62526;50.948;6.590;2023-04-24T08:33:35;3.30;;;2.33;;
74170;SDS011;62526;50.948;6.590;2023-04-24T08:36:02;3.57;;;3.10;;
74170;SDS011;62526;50.948;6.590;2023-04-24T08:38:29;6.17;;;3.50;;
74170;SDS011;62526;50.948;6.590;2023-04-24T08:40:57;5.47;;;3.23;;
74170;SDS011;62526;50.948;6.590;2023-04-24T08:43:22;5.73;;;3.90;;
74170;SDS011;62526;50.948;6.590;2023-04-24T08:45:49;5.73;;;4.30;;
74170;SDS011;62526;50.948;6.590;2023-04-24T08:48:16;6.83;;;4.10;;
74170;SDS011;62526;50.948;6.590;2023-04-24T08:50:42;7.87;;;4.73;;
74170;SDS011;62526;50.948;6.590;2023-04-24T08:53:09;9.47;;;4.40;;
74170;SDS011;62526;50.948;6.590;2023-04-24T08:55:35;4.27;;;3.40;;
74170;SDS011;62526;50.948;6.590;2023-04-24T08:58:02;6.90;;;5.00;;
74170;SDS011;62526;50.948;6.590;2023-04-24T09:00:29;6.37;;;4.20;;
74170;SDS011;62526;50.948;6.590;2023-04-24T09:02:55;5.23;;;4.03;;
74170;SDS011;62526;50.948;6.590;2023-04-24T09:05:22;8.07;;;4.40;;
74170;SDS011;62526;50.948;6.590;2023-04-24T09:07:49;8.40;;;4.53;;
74170;SDS011;62526;50.948;6.590;2023-04-24T09:10:16;6.67;;;4.23;;
74170;SDS011;62526;50.948;6.590;2023-04-24T09:12:42;6.80;;;4.33;;
74170;SDS011;62526;50.948;6.590;2023-04-24T09:15:09;8.10;;;4.53;;
74170;SDS011;62526;50.948;6.590;2023-04-24T09:17:36;10.53;;;4.33;;
74170;SDS011;62526;50.948;6.590;2023-04-24T09:20:03;10.53;;;5.33;;
74170;SDS011;62526;50.948;6.590;2023-04-24T09:22:30;6.10;;;4.20;;
74170;SDS011;62526;50.948;6.590;2023-04-24T09:25:01;11.63;;;6.13;;
74170;SDS011;62526;50.948;6.590;2023-04-24T09:27:28;7.33;;;4.60;;
74170;SDS011;62526;50.948;6.590;2023-04-24T09:29:56;6.60;;;3.87;;
74170;SDS011;62526;50.948;6.590;2023-04-24T09:32:22;8.87;;;5.60;;
74170;SDS011;62526;50.948;6.590;2023-04-24T09:34:49;6.60;;;4.43;;
74170;SDS011;62526;50.948;6.590;2023-04-24T09:37:28;7.40;;;4.43;;
74170;SDS011;62526;50.948;6.590;2023-04-24T09:40:06;8.73;;;5.53;;
74170;SDS011;62526;50.948;6.590;2023-04-24T09:42:14;8.90;;;4.33;;
74170;SDS011;62526;50.948;6.590;2023-04-24T09:44:41;5.13;;;3.57;;
74170;SDS011;62526;50.948;6.590;2023-04-24T09:47:08;6.93;;;4.03;;
74170;SDS011;62526;50.948;6.590;2023-04-24T09:49:34;5.60;;;3.10;;
74170;SDS011;62526;50.948;6.590;2023-04-24T09:52:03;5.17;;;3.83;;
74170;SDS011;62526;50.948;6.590;2023-04-24T09:54:32;6.67;;;3.90;;
74170;SDS011;62526;50.948;6.590;2023-04-24T09:56:58;7.80;;;4.17;;
74170;SDS011;62526;50.948;6.590;2023-04-24T09:59:26;5.27;;;3.07;;
74170;SDS011;62526;50.948;6.590;2023-04-24T10:01:52;6.50;;;3.07;;
74170;SDS011;62526;50.948;6.590;2023-04-24T10:04:20;5.37;;;3.47;;
74170;SDS011;62526;50.948;6.590;2023-04-24T10:06:46;8.40;;;3.07;;
74170;SDS011;62526;50.948;6.590;2023-04-24T10:09:12;3.53;;;2.93;;
74170;SDS011;62526;50.948;6.590;2023-04-24T10:11:41;5.20;;;3.03;;
74170;SDS011;62526;50.948;6.590;2023-04-24T10:14:09;6.40;;;3.07;;
74170;SDS011;62526;50.948;6.590;2023-04-24T10:16:34;8.73;;;4.47;;
74170;SDS011;62526;50.948;6.590;2023-04-24T10:19:01;4.63;;;3.83;;
74170;SDS011;62526;50.948;6.590;2023-04-24T10:21:28;5.10;;;4.30;;
74170;SDS011;62526;50.948;6.590;2023-04-24T10:23:54;6.83;;;3.40;;
74170;SDS011;62526;50.948;6.590;2023-04-24T10:26:21;8.03;;;4.03;;
74170;SDS011;62526;50.948;6.590;2023-04-24T10:28:47;11.00;;;3.50;;
74170;SDS011;62526;50.948;6.590;2023-04-24T10:31:14;9.97;;;4.17;;
74170;SDS011;62526;50.948;6.590;2023-04-24T10:33:41;9.17;;;3.13;;
74170;SDS011;62526;50.948;6.590;2023-04-24T10:36:08;6.97;;;4.33;;
74170;SDS011;62526;50.948;6.590;2023-04-24T10:38:36;9.13;;;3.80;;
74170;SDS011;62526;50.948;6.590;2023-04-24T10:41:08;9.40;;;3.70;;
74170;SDS011;62526;50.948;6.590;2023-04-24T10:43:33;7.30;;;3.00;;
74170;SDS011;62526;50.948;6.590;2023-04-24T10:46:01;8.37;;;4.10;;
74170;SDS011;62526;50.948;6.590;2023-04-24T10:48:28;6.93;;;3.30;;
74170;SDS011;62526;50.948;6.590;2023-04-24T10:50:54;8.20;;;4.20;;
74170;SDS011;62526;50.948;6.590;2023-04-24T10:53:24;10.50;;;4.10;;
74170;SDS011;62526;50.948;6.590;2023-04-24T10:55:50;9.50;;;3.53;;
74170;SDS011;62526;50.948;6.590;2023-04-24T10:58:16;9.57;;;3.87;;
74170;SDS011;62526;50.948;6.590;2023-04-24T11:00:42;6.40;;;3.10;;
74170;SDS011;62526;50.948;6.590;2023-04-24T11:03:26;11.33;;;4.47;;
74170;SDS011;62526;50.948;6.590;2023-04-24T11:05:59;10.77;;;4.30;;
74170;SDS011;62526;50.948;6.590;2023-04-24T11:08:26;7.93;;;3.70;;
74170;SDS011;62526;50.948;6.590;2023-04-24T11:10:55;8.67;;;3.90;;
74170;SDS011;62526;50.948;6.590;2023-04-24T11:13:21;7.47;;;3.70;;
74170;SDS011;62526;50.948;6.590;2023-04-24T11:18:26;5.93;;;4.10;;
74170;SDS011;62526;50.948;6.590;2023-04-24T11:20:52;14.80;;;3.90;;
74170;SDS011;62526;50.948;6.590;2023-04-24T11:23:19;8.20;;;3.80;;
74170;SDS011;62526;50.948;6.590;2023-04-24T11:25:46;9.20;;;3.63;;
74170;SDS011;62526;50.948;6.590;2023-04-24T11:28:14;9.33;;;4.20;;
74170;SDS011;62526;50.948;6.590;2023-04-24T11:30:39;4.40;;;2.83;;
74170;SDS011;62526;50.948;6.590;2023-04-24T11:33:05;5.57;;;3.53;;
74170;SDS011;62526;50.948;6.590;2023-04-24T11:35:35;7.57;;;4.00;;
74170;SDS011;62526;50.948;6.590;2023-04-24T11:38:01;8.97;;;3.30;;
74170;SDS011;62526;50.948;6.590;2023-04-24T11:40:28;5.07;;;3.07;;
74170;SDS011;62526;50.948;6.590;2023-04-24T11:42:55;9.33;;;4.20;;
74170;SDS011;62526;50.948;6.590;2023-04-24T11:45:22;9.20;;;3.83;;
74170;SDS011;62526;50.948;6.590;2023-04-24T11:47:49;5.97;;;3.23;;
74170;SDS011;62526;50.948;6.590;2023-04-24T11:50:17;8.53;;;2.83;;
74170;SDS011;62526;50.948;6.590;2023-04-24T11:52:44;10.90;;;3.90;;
74170;SDS011;62526;50.948;6.590;2023-04-24T11:57:56;7.33;;;3.97;;
74170;SDS011;62526;50.948;6.590;2023-04-24T12:00:26;15.17;;;4.00;;
74170;SDS011;62526;50.948;6.590;2023-04-24T12:03:02;9.37;;;3.40;;
74170;SDS011;62526;50.948;6.590;2023-04-24T12:05:19;11.40;;;4.40;;
74170;SDS011;62526;50.948;6.590;2023-04-24T12:07:46;10.40;;;3.47;;
74170;SDS011;62526;50.948;6.590;2023-04-24T12:10:12;16.17;;;4.73;;
74170;SDS011;62526;50.948;6.590;2023-04-24T12:12:39;5.97;;;3.20;;
74170;SDS011;62526;50.948;6.590;2023-04-24T12:15:06;6.80;;;3.33;;
74170;SDS011;62526;50.948;6.590;2023-04-24T12:17:33;8.10;;;3.07;;
74170;SDS011;62526;50.948;6.590;2023-04-24T12:20:02;9.63;;;3.50;;
74170;SDS011;62526;50.948;6.590;2023-04-24T12:22:50;5.83;;;2.90;;
74170;SDS011;62526;50.948;6.590;2023-04-24T12:25:17;5.10;;;3.50;;
74170;SDS011;62526;50.948;6.590;2023-04-24T12:27:43;9.85;;;3.45;;
74170;SDS011;62526;50.948;6.590;2023-04-24T12:30:11;9.07;;;3.50;;
74170;SDS011;62526;50.948;6.590;2023-04-24T12:32:40;8.15;;;3.33;;
74170;SDS011;62526;50.948;6.590;2023-04-24T12:35:04;6.50;;;3.17;;
74170;SDS011;62526;50.948;6.590;2023-04-24T12:37:32;8.68;;;3.60;;
74170;SDS011;62526;50.948;6.590;2023-04-24T12:40:03;8.52;;;3.87;;
74170;SDS011;62526;50.948;6.590;2023-04-24T12:42:33;12.40;;;3.67;;
74170;SDS011;62526;50.948;6.590;2023-04-24T12:45:02;10.27;;;2.67;;
74170;SDS011;62526;50.948;6.590;2023-04-24T12:47:29;7.45;;;3.62;;
74170;SDS011;62526;50.948;6.590;2023-04-24T12:49:56;7.87;;;4.05;;
74170;SDS011;62526;50.948;6.590;2023-04-24T12:52:23;3.65;;;2.65;;
74170;SDS011;62526;50.948;6.590;2023-04-24T12:54:50;3.33;;;2.62;;
74170;SDS011;62526;50.948;6.590;2023-04-24T12:57:17;7.78;;;3.08;;
74170;SDS011;62526;50.948;6.590;2023-04-24T12:59:42;3.42;;;2.75;;
74170;SDS011;62526;50.948;6.590;2023-04-24T13:02:09;6.40;;;4.07;;
74170;SDS011;62526;50.948;6.590;2023-04-24T13:04:36;6.25;;;3.50;;
74170;SDS011;62526;50.948;6.590;2023-04-24T13:07:02;6.95;;;3.65;;
74170;SDS011;62526;50.948;6.590;2023-04-24T13:09:29;7.70;;;4.40;;
74170;SDS011;62526;50.948;6.590;2023-04-24T13:11:55;7.10;;;2.97;;
74170;SDS011;62526;50.948;6.590;2023-04-24T13:14:22;11.65;;;3.80;;
74170;SDS011;62526;50.948;6.590;2023-04-24T13:16:49;5.80;;;3.40;;
74170;SDS011;62526;50.948;6.590;2023-04-24T13:19:15;8.60;;;4.70;;
74170;SDS011;62526;50.948;6.590;2023-04-24T13:21:42;7.87;;;3.35;;
74170;SDS011;62526;50.948;6.590;2023-04-24T13:24:09;6.68;;;3.60;;
74170;SDS011;62526;50.948;6.590;2023-04-24T13:26:35;6.22;;;3.90;;
74170;SDS011;62526;50.948;6.590;2023-04-24T13:29:02;11.02;;;4.25;;
74170;SDS011;62526;50.948;6.590;2023-04-24T13:31:28;5.87;;;3.60;;
74170;SDS011;62526;50.948;6.590;2023-04-24T13:33:55;6.80;;;3.65;;
74170;SDS011;62526;50.948;6.590;2023-04-24T13:36:22;6.37;;;3.87;;
74170;SDS011;62526;50.948;6.590;2023-04-24T13:38:48;11.15;;;4.03;;
74170;SDS011;62526;50.948;6.590;2023-04-24T13:41:15;6.87;;;2.80;;
74170;SDS011;62526;50.948;6.590;2023-04-24T13:43:41;7.80;;;2.47;;
74170;SDS011;62526;50.948;6.590;2023-04-24T13:46:08;4.62;;;3.58;;
74170;SDS011;62526;50.948;6.590;2023-04-24T13:48:35;7.47;;;3.20;;
74170;SDS011;62526;50.948;6.590;2023-04-24T13:51:01;7.60;;;3.10;;
74170;SDS011;62526;50.948;6.590;2023-04-24T13:53:28;5.37;;;3.08;;
74170;SDS011;62526;50.948;6.590;2023-04-24T13:55:55;3.58;;;2.62;;
74170;SDS011;62526;50.948;6.590;2023-04-24T13:58:21;7.47;;;2.83;;
74170;SDS011;62526;50.948;6.590;2023-04-24T14:00:48;10.20;;;2.97;;
74170;SDS011;62526;50.948;6.590;2023-04-24T14:03:14;7.12;;;3.22;;
74170;SDS011;62526;50.948;6.590;2023-04-24T14:05:41;6.45;;;3.20;;
74170;SDS011;62526;50.948;6.590;2023-04-24T14:08:08;8.35;;;3.25;;
74170;SDS011;62526;50.948;6.590;2023-04-24T14:10:34;3.83;;;2.58;;
74170;SDS011;62526;50.948;6.590;2023-04-24T14:13:01;5.15;;;3.12;;
74170;SDS011;62526;50.948;6.590;2023-04-24T14:15:27;5.00;;;2.55;;
74170;SDS011;62526;50.948;6.590;2023-04-24T14:17:54;8.77;;;3.55;;
74170;SDS011;62526;50.948;6.590;2023-04-24T14:20:21;5.93;;;4.50;;
74170;SDS011;62526;50.948;6.590;2023-04-24T14:22:47;6.93;;;3.15;;
74170;SDS011;62526;50.948;6.590;2023-04-24T14:25:14;10.00;;;4.10;;
74170;SDS011;62526;50.948;6.590;2023-04-24T14:27:40;6.55;;;4.05;;
74170;SDS011;62526;50.948;6.590;2023-04-24T14:30:07;10.18;;;3.80;;
74170;SDS011;62526;50.948;6.590;2023-04-24T14:32:34;4.72;;;3.58;;
74170;SDS011;62526;50.948;6.590;2023-04-24T14:35:01;5.45;;;3.05;;
74170;SDS011;62526;50.948;6.590;2023-04-24T14:37:27;4.75;;;3.20;;
74170;SDS011;62526;50.948;6.590;2023-04-24T14:39:55;5.82;;;3.62;;
74170;SDS011;62526;50.948;6.590;2023-04-24T14:42:21;6.43;;;3.60;;
74170;SDS011;62526;50.948;6.590;2023-04-24T14:44:48;5.78;;;3.22;;
74170;SDS011;62526;50.948;6.590;2023-04-24T14:47:14;7.53;;;3.10;;